Pagina principală
METAR-TAF:

METAR-TAF

Aeroporturi :

Munda, New Georgia, Insulele Solomon

Latitudine: 8-19-41S, longitudine: 157-15-47E, elevație: 3 m

Observații meteo curente

Raportul a fost făcut în urmă cu 7 ore și 18 de minute, la 03:00 UTC
Vânt 5 kt de la Est
Temperatură 30°C
Umiditate 79%
Presiune 1012 hPa
Vizibilitate de 10 km sau mai mult
Nori puțini la o înălțime de 2000 picior
Nori fragmentați la o înălțime de 10000 picior

METAR: AGGM 260300Z 09005KT 9999 FEW020 BKN100 30/26 Q1012

Ora: 21:18 (10:18 UTC)

Prognoză

Raportul a fost făcut în urmă cu 5 ore și 18 de minute, la 05:00 UTC
Prognoză valabilă de la 26 ora 06 UTC la 27 ora 06 UTC
Vânt 10 kt de la Est/Sud-est
Vizibilitate: 1012 m
Nori împrăștiați la o înălțime de 1700 picior
Nori fragmentați la o înălțime de 10000 picior

TAF: AGGM 260500Z 2606/2706 11010KT 9999 SCT017 BKN100 Q 1011 1013 1014 1012

Observații și prognoze meteo pentru peste 4.000 de aeroporturi (rapoarte METAR și TAF).

Stațiile disponibile sunt reprezentate pe hartă prin puncte galbene și roșii.

Țineți indicatorul mouse-ului pe punctul dorit pentru a vedea denumirea stației.

Apoi, faceți clic pentru a vedea observațiile și prognozele meteorologice.

Pentru a schimba harta: Pentru mărire, faceți clic pe butoanele verzi cu cruce neagră; pentru micșorare, pe butonul verde cu o liniuță; pentru hărți învecinate, pe săgețile verzi.


METAR-TAF: